Airfield :
LOGIN :

Register | Disclaimer

   EN    FR    IT 

 










Legend :    VFR   Marginal VFR   IFR   Intensive IFR   Very Intensive IFR
Visi :
Ceiling :
>= 8 km
>= 3000ft
5 to 8 km
1000 to 3000 ft
1500m to 5 km
500 to 1000 ft
800 to 1500m
200 to 500 ft
< 800m
< 200 ft
Symbols :   Thunderstorms  Fog  Heavy snow  Heavy precipitations  Wind > 20 kt
SIGMETs :     Misc.  Thunderstorms  Icing  Turbulence  Mountain Waves  Volcanic Ashes






- Airport Elevation : 505 ft
- IATA code : SXB


LFST - Strasbourg

CURRENT METAR :
  • 161930Z AUTO 21012KT CAVOK 16/05 Q1013 TEMPO 20015G25KT

EXPIRED METARs :
  • 161900Z AUTO 21012KT CAVOK 15/04 Q1013
  • 161830Z AUTO 23012KT CAVOK 16/05 Q1013 TEMPO 20015G25KT
  • 161800Z AUTO 21014KT CAVOK 16/04 Q1013 TEMPO 20015G25KT
  • 161730Z AUTO 21013KT CAVOK 16/05 Q1012 TEMPO 20015G25KT
  • 161700Z AUTO 20012KT CAVOK 17/05 Q1012 TEMPO 21015G25KT
  • 161630Z AUTO 21011KT CAVOK 16/05 Q1012 TEMPO 21015G25KT

TAF TAF LFST
Valid from the 16 at 18:00 until the 17 at 18:00 UTC


161700Z 1618/1718 20012KT CAVOK
PROB30
TEMPO 1618/1624 20015G25KT
BECMG 1700/1702 21015G25KT BKN040
PROB40
TEMPO 1701/1703 22020G35KT -RA
BECMG 1703/1706 24010KT
TEMPO 1703/1718 -SHRA
PROB30
TEMPO 1712/1717 30010G20KT FEW035TCU



MET'MAP, your aeronautical weather chart ! - Copyright ORBIFLY December 2007 - Disclaimer

ORBIFLY MET'MAP TEAM :

Programming & Development : Alexandra Zaïnal
Concept & original design : Baudouin d'Aumeries
Assistance for programming : Marc-Olivier Méhu
Technical & hardware support : Manuel Goepfert

Contact : metmap@orbifly.com




SOURCES & CREDITS :

   NOAA